»·PEaware :: GDS29 KLAS-KPHX

GDS29 :: KLAS-KPHX

FLIGHT INFORMATION

Flight Status: Arrived
Operator: Unknown
More flights by this operator :: More flights under this callsign
Pilot: Ryan B. (8502)
Aircraft: BOEING 727-200
(B722)
More flights by this aircraft type
Origin: KLAS McCarran Intl
United States
Destination: KPHX Phoenix Sky Harbor Intl
United States
More flights between these airports :: More routes between these airports
Route: +HOOVR6 DRK COYOT4
File this flight plan on PilotEdge
Remarks:
Altitude:
(Current/Filed)
31,000ft
Speed:
(Current/Filed)
484kts
Departed: 16-Oct-17 04:29 PM
Arrived: 16-Oct-17 05:16 PM
Distance/Time
Traveled:
222nm/0:47
Distance/Time
To Go:
Arrived

Flight Plot

Page will automatically refresh every two minutes.

Flight plan parsing failed; only flown route is shown


Map Options




Map Legend


Flown Route
Filed Route
Departure Airport
Arrival Airport
Navaid (VOR, NDB)
Fix

Horizontal Profiles

Position Reports

Time Latitude Longitude Heading Altitude Ground
Speed
16-Oct-17 16:08 36.081454 -115.171217 89 2176ft 0kts
16-Oct-17 16:09 36.081454 -115.171217 89 2176ft 0kts
16-Oct-17 16:10 36.081454 -115.171217 89 2176ft 0kts
16-Oct-17 16:11 36.081454 -115.171217 89 2176ft 0kts
16-Oct-17 16:12 36.081454 -115.171217 89 2176ft 0kts
16-Oct-17 16:13 36.081454 -115.171217 89 2176ft 0kts
16-Oct-17 16:14 36.081454 -115.171217 89 2176ft 0kts
16-Oct-17 16:15 36.081454 -115.171217 89 2176ft 0kts
16-Oct-17 16:16 36.081454 -115.171217 89 2176ft 0kts
16-Oct-17 16:17 36.081454 -115.171217 89 2176ft 0kts
16-Oct-17 16:18 36.081454 -115.171217 89 2176ft 0kts
16-Oct-17 16:19 36.081454 -115.171217 89 2176ft 0kts
16-Oct-17 16:20 36.081454 -115.171217 89 2176ft 0kts
16-Oct-17 16:21 36.081454 -115.171217 89 2176ft 0kts
16-Oct-17 16:22 36.081454 -115.171217 89 2176ft 0kts
16-Oct-17 16:23 36.081454 -115.171217 89 2176ft 0kts
16-Oct-17 16:24 36.081454 -115.171217 89 2176ft 0kts
16-Oct-17 16:25 36.081454 -115.171217 89 2176ft 0kts
16-Oct-17 16:26 36.081454 -115.171217 89 2176ft 0kts
16-Oct-17 16:27 36.081454 -115.171217 89 2176ft 0kts
16-Oct-17 16:28 36.081454 -115.171217 89 2176ft 0kts
16-Oct-17 16:29 36.081881 -115.169045 38 2171ft 20kts
16-Oct-17 16:30 36.088918 -115.164922 24 2143ft 32kts
16-Oct-17 16:31 36.097283 -115.160090 24 2105ft 19kts
16-Oct-17 16:32 36.099667 -115.158287 63 2096ft 0kts
16-Oct-17 16:33 36.098927 -115.156849 205 2092ft 0kts
16-Oct-17 16:34 36.094727 -115.159253 204 2108ft 87kts
16-Oct-17 16:35 36.060883 -115.178675 202 3295ft 144kts
16-Oct-17 16:36 36.026065 -115.204244 228 4638ft 165kts
16-Oct-17 16:37 35.992055 -115.251534 228 6230ft 214kts
16-Oct-17 16:38 35.945228 -115.316688 228 7076ft 296kts
16-Oct-17 16:39 35.889720 -115.393889 229 9746ft 301kts
16-Oct-17 16:40 35.833558 -115.471538 229 13190ft 324kts
16-Oct-17 16:41 35.773686 -115.556479 232 16698ft 335kts
16-Oct-17 16:42 35.713817 -115.646520 232 19762ft 348kts
16-Oct-17 16:43 35.648258 -115.735692 210 22469ft 365kts
16-Oct-17 16:44 35.553216 -115.712307 131 24829ft 398kts
16-Oct-17 16:45 35.514974 -115.582693 106 26973ft 416kts
16-Oct-17 16:46 35.483566 -115.443870 106 28753ft 428kts
16-Oct-17 16:47 35.451876 -115.301976 106 30130ft 438kts
16-Oct-17 16:48 35.419619 -115.155735 106 31044ft 458kts
16-Oct-17 16:49 35.384590 -114.998051 106 30972ft 503kts
16-Oct-17 16:50 35.339342 -114.828702 110 30911ft 541kts
16-Oct-17 16:51 35.278611 -114.658978 115 30875ft 552kts
16-Oct-17 16:52 35.232966 -114.480665 107 30888ft 547kts
16-Oct-17 16:53 35.187916 -114.304797 109 30984ft 542kts
16-Oct-17 16:54 35.142534 -114.128788 108 31021ft 545kts
16-Oct-17 16:55 35.098615 -113.959102 108 31054ft 547kts
16-Oct-17 16:56 35.052550 -113.782313 108 31055ft 549kts
16-Oct-17 16:57 35.006605 -113.607226 109 31034ft 527kts
16-Oct-17 16:58 34.963021 -113.442691 109 31038ft 493kts
16-Oct-17 16:59 34.922138 -113.288825 110 30426ft 477kts
16-Oct-17 17:00 34.880696 -113.136971 111 29515ft 468kts
16-Oct-17 17:01 34.840315 -112.987940 110 29324ft 466kts
16-Oct-17 17:02 34.798991 -112.836606 108 29293ft 478kts
16-Oct-17 17:03 34.757205 -112.681314 107 29323ft 490kts
16-Oct-17 17:04 34.713806 -112.522433 107 29323ft 501kts
16-Oct-17 17:05 34.669236 -112.360739 107 29322ft 511kts
16-Oct-17 17:06 34.580690 -112.234291 162 29322ft 511kts
16-Oct-17 17:07 34.451553 -112.208549 170 29168ft 463kts
16-Oct-17 17:08 34.327338 -112.187783 174 26042ft 449kts
16-Oct-17 17:09 34.207200 -112.162147 168 22925ft 431kts
16-Oct-17 17:10 34.093103 -112.133885 168 19970ft 411kts
16-Oct-17 17:11 33.986094 -112.107150 167 15970ft 381kts
16-Oct-17 17:12 33.886944 -112.082432 167 11127ft 352kts
16-Oct-17 17:13 33.799163 -112.060749 167 9150ft 302kts
16-Oct-17 17:14 33.718468 -112.040732 167 9273ft 291kts
16-Oct-17 17:15 33.641385 -112.042911 200 8585ft 274kts
16-Oct-17 17:16 33.572723 -112.073032 202 8016ft 233kts
16-Oct-17 17:17 33.521901 -112.099155 200 6403ft 184kts
16-Oct-17 17:18 33.472823 -112.106663 181 4810ft 176kts
16-Oct-17 17:18 33.435661 -112.096110 136 3297ft 175kts
16-Oct-17 17:19 33.428915 -112.043414 91 1493ft 153kts
16-Oct-17 17:21 33.428834 -112.007277 97 1125ft 12kts
16-Oct-17 17:21 33.427764 -112.009009 269 1124ft 23kts
16-Oct-17 17:22 33.427763 -112.020121 270 1121ft 10kts
16-Oct-17 17:24 33.426767 -112.020563 175 1121ft 0kts

Navigation Log

Ident Type
Flight plan parsing failed, navigation log unavailable